Aviation Digital Data Service (ADDS)

Output produced by METARs form (1218 UTC 15 December 2017)
found at http://aviationweather.gov/adds/metars/
 
METAR text: KCVH 151155Z AUTO 00000KT 10SM CLR 02/M04 A3018 RMK A01
Conditions at: KCVH (HOLLISTER MUNI , CA, US) observed 1155 UTC 15 December 2017
Temperature: 2.0°C (36°F)
Dewpoint: -4.0°C (25°F) [RH = 64%]
Pressure (altimeter): 30.18 inches Hg (1022.1 mb)
Winds: calm
Visibility: 10 or more miles (16+ km)
Ceiling: at least 12,000 feet AGL
Clouds: sky clear below 12,000 feet AGL
Weather: automated observation with no human augmentation;
there may or may not be significant weather present at this time